sensor_id;sensor_type;location;lat;lon;timestamp;pressure;altitude;pressure_sealevel;temperature;humidity
25526;BME280;13424;48.424;11.258;2023-07-28T00:01:05;95033.28;;;20.17;74.87
25526;BME280;13424;48.424;11.258;2023-07-28T00:03:31;95033.75;;;20.19;73.73
25526;BME280;13424;48.424;11.258;2023-07-28T00:05:57;95040.00;;;20.28;73.27
25526;BME280;13424;48.424;11.258;2023-07-28T00:08:23;95036.69;;;20.31;74.06
25526;BME280;13424;48.424;11.258;2023-07-28T00:10:48;95029.69;;;20.30;73.43
25526;BME280;13424;48.424;11.258;2023-07-28T00:13:14;95028.53;;;20.23;74.29
25526;BME280;13424;48.424;11.258;2023-07-28T00:15:40;95023.16;;;20.31;73.56
25526;BME280;13424;48.424;11.258;2023-07-28T00:18:06;95026.00;;;20.35;72.86
25526;BME280;13424;48.424;11.258;2023-07-28T00:20:32;95019.13;;;20.29;73.22
25526;BME280;13424;48.424;11.258;2023-07-28T00:22:58;95023.72;;;20.11;73.85
25526;BME280;13424;48.424;11.258;2023-07-28T00:25:25;95026.38;;;20.02;74.54
25526;BME280;13424;48.424;11.258;2023-07-28T00:27:51;95014.47;;;20.12;74.34
25526;BME280;13424;48.424;11.258;2023-07-28T00:30:17;95018.03;;;19.90;74.59
25526;BME280;13424;48.424;11.258;2023-07-28T00:32:42;95007.75;;;20.01;74.39
25526;BME280;13424;48.424;11.258;2023-07-28T00:35:18;95015.19;;;19.87;75.03
25526;BME280;13424;48.424;11.258;2023-07-28T00:37:44;95010.09;;;19.85;74.56
25526;BME280;13424;48.424;11.258;2023-07-28T00:40:10;95009.75;;;19.87;74.41
25526;BME280;13424;48.424;11.258;2023-07-28T00:42:38;95007.69;;;19.84;74.76
25526;BME280;13424;48.424;11.258;2023-07-28T00:45:04;95008.94;;;19.77;74.88
25526;BME280;13424;48.424;11.258;2023-07-28T00:47:31;95009.81;;;19.42;75.90
25526;BME280;13424;48.424;11.258;2023-07-28T00:49:57;95005.41;;;19.68;74.93
25526;BME280;13424;48.424;11.258;2023-07-28T00:52:23;95006.34;;;19.72;74.67
25526;BME280;13424;48.424;11.258;2023-07-28T00:54:49;95009.03;;;19.64;74.95
25526;BME280;13424;48.424;11.258;2023-07-28T00:57:15;95000.59;;;19.65;74.66
25526;BME280;13424;48.424;11.258;2023-07-28T00:59:41;95011.09;;;19.67;74.31
25526;BME280;13424;48.424;11.258;2023-07-28T01:02:07;95003.38;;;19.51;74.96
25526;BME280;13424;48.424;11.258;2023-07-28T01:04:33;95002.97;;;19.36;75.57
25526;BME280;13424;48.424;11.258;2023-07-28T01:07:30;95006.00;;;19.43;74.86
25526;BME280;13424;48.424;11.258;2023-07-28T01:10:08;95009.25;;;19.53;74.50
25526;BME280;13424;48.424;11.258;2023-07-28T01:12:36;95012.25;;;19.43;74.91
25526;BME280;13424;48.424;11.258;2023-07-28T01:15:06;95009.81;;;19.42;74.71
25526;BME280;13424;48.424;11.258;2023-07-28T01:17:32;95011.72;;;19.41;74.91
25526;BME280;13424;48.424;11.258;2023-07-28T01:19:58;94998.16;;;19.10;76.28
25526;BME280;13424;48.424;11.258;2023-07-28T01:23:25;94999.28;;;19.09;76.19
25526;BME280;13424;48.424;11.258;2023-07-28T01:26:10;95000.84;;;18.88;76.71
25526;BME280;13424;48.424;11.258;2023-07-28T01:28:40;95010.41;;;18.72;77.04
25526;BME280;13424;48.424;11.258;2023-07-28T01:31:08;95006.41;;;18.83;76.85
25526;BME280;13424;48.424;11.258;2023-07-28T01:33:35;95004.31;;;19.02;76.40
25526;BME280;13424;48.424;11.258;2023-07-28T01:40:06;95007.13;;;19.19;75.24
25526;BME280;13424;48.424;11.258;2023-07-28T01:42:32;95008.13;;;19.01;75.95
25526;BME280;13424;48.424;11.258;2023-07-28T01:44:58;95011.94;;;19.00;75.68
25526;BME280;13424;48.424;11.258;2023-07-28T01:47:24;95010.81;;;19.01;75.37
25526;BME280;13424;48.424;11.258;2023-07-28T01:49:51;95015.22;;;18.75;76.55
25526;BME280;13424;48.424;11.258;2023-07-28T01:52:55;95011.66;;;18.88;76.21
25526;BME280;13424;48.424;11.258;2023-07-28T01:55:21;95010.34;;;18.99;75.83
25526;BME280;13424;48.424;11.258;2023-07-28T01:58:00;95006.28;;;19.10;74.92
25526;BME280;13424;48.424;11.258;2023-07-28T02:00:27;95006.16;;;19.15;75.04
25526;BME280;13424;48.424;11.258;2023-07-28T02:02:53;95005.91;;;19.03;74.75
25526;BME280;13424;48.424;11.258;2023-07-28T02:05:20;94999.09;;;19.06;74.70
25526;BME280;13424;48.424;11.258;2023-07-28T02:07:46;95002.53;;;18.98;75.02
25526;BME280;13424;48.424;11.258;2023-07-28T02:10:12;94997.69;;;19.08;74.13
25526;BME280;13424;48.424;11.258;2023-07-28T02:12:39;95002.19;;;19.13;74.22
25526;BME280;13424;48.424;11.258;2023-07-28T02:15:07;95007.28;;;19.14;74.44
25526;BME280;13424;48.424;11.258;2023-07-28T02:17:34;95011.56;;;19.15;74.08
25526;BME280;13424;48.424;11.258;2023-07-28T02:20:00;95016.13;;;19.06;74.61
25526;BME280;13424;48.424;11.258;2023-07-28T02:22:29;95016.59;;;19.08;74.78
25526;BME280;13424;48.424;11.258;2023-07-28T02:24:55;95020.09;;;19.09;73.68
25526;BME280;13424;48.424;11.258;2023-07-28T02:27:21;95009.19;;;19.14;73.55
25526;BME280;13424;48.424;11.258;2023-07-28T02:29:47;95011.25;;;19.17;73.60
25526;BME280;13424;48.424;11.258;2023-07-28T02:32:13;95004.94;;;19.21;73.54
25526;BME280;13424;48.424;11.258;2023-07-28T02:34:39;95007.88;;;19.11;73.91
25526;BME280;13424;48.424;11.258;2023-07-28T02:37:05;95014.03;;;18.81;74.79
25526;BME280;13424;48.424;11.258;2023-07-28T02:39:31;95007.25;;;18.92;74.42
25526;BME280;13424;48.424;11.258;2023-07-28T02:41:57;95007.25;;;18.92;74.15
25526;BME280;13424;48.424;11.258;2023-07-28T02:44:23;95004.03;;;18.67;75.05
25526;BME280;13424;48.424;11.258;2023-07-28T02:46:49;95007.44;;;18.59;75.48
25526;BME280;13424;48.424;11.258;2023-07-28T02:49:15;94997.22;;;18.56;75.51
25526;BME280;13424;48.424;11.258;2023-07-28T02:51:41;94989.81;;;18.62;75.22
25526;BME280;13424;48.424;11.258;2023-07-28T02:54:07;94995.84;;;18.73;74.86
25526;BME280;13424;48.424;11.258;2023-07-28T02:56:34;94997.66;;;18.86;74.21
25526;BME280;13424;48.424;11.258;2023-07-28T02:59:06;95004.38;;;18.88;73.96
25526;BME280;13424;48.424;11.258;2023-07-28T03:01:32;95014.38;;;18.38;75.81
25526;BME280;13424;48.424;11.258;2023-07-28T03:04:03;95009.25;;;18.50;75.64
25526;BME280;13424;48.424;11.258;2023-07-28T03:06:41;95003.63;;;18.60;75.23
25526;BME280;13424;48.424;11.258;2023-07-28T03:09:07;94999.66;;;18.58;75.26
25526;BME280;13424;48.424;11.258;2023-07-28T03:11:56;94998.31;;;18.33;76.10
25526;BME280;13424;48.424;11.258;2023-07-28T03:14:22;95000.19;;;18.32;76.32
25526;BME280;13424;48.424;11.258;2023-07-28T03:16:48;94997.88;;;18.39;75.65
25526;BME280;13424;48.424;11.258;2023-07-28T03:19:16;94995.38;;;18.43;76.00
25526;BME280;13424;48.424;11.258;2023-07-28T03:21:43;94992.06;;;18.46;76.05
25526;BME280;13424;48.424;11.258;2023-07-28T03:24:09;94995.47;;;18.38;76.30
25526;BME280;13424;48.424;11.258;2023-07-28T03:26:35;94995.69;;;18.28;76.58
25526;BME280;13424;48.424;11.258;2023-07-28T03:29:01;95000.47;;;18.31;76.72
25526;BME280;13424;48.424;11.258;2023-07-28T03:31:27;95003.09;;;18.36;76.51
25526;BME280;13424;48.424;11.258;2023-07-28T03:33:53;95001.28;;;18.31;76.57
25526;BME280;13424;48.424;11.258;2023-07-28T03:36:19;95008.50;;;18.08;77.38
25526;BME280;13424;48.424;11.258;2023-07-28T03:38:46;95005.91;;;18.03;77.64
25526;BME280;13424;48.424;11.258;2023-07-28T03:41:13;95010.50;;;18.17;77.25
25526;BME280;13424;48.424;11.258;2023-07-28T03:43:40;95006.00;;;18.26;76.89
25526;BME280;13424;48.424;11.258;2023-07-28T03:46:07;95010.91;;;18.10;77.25
25526;BME280;13424;48.424;11.258;2023-07-28T03:48:33;95010.41;;;18.08;78.33
25526;BME280;13424;48.424;11.258;2023-07-28T03:50:59;95015.53;;;18.09;78.08
25526;BME280;13424;48.424;11.258;2023-07-28T03:53:25;95025.00;;;18.07;78.36
25526;BME280;13424;48.424;11.258;2023-07-28T03:55:51;95020.00;;;18.00;78.59
25526;BME280;13424;48.424;11.258;2023-07-28T03:58:27;95022.91;;;18.18;77.76
25526;BME280;13424;48.424;11.258;2023-07-28T04:00:53;95026.50;;;18.27;77.65
25526;BME280;13424;48.424;11.258;2023-07-28T04:03:20;95020.78;;;18.42;77.04
25526;BME280;13424;48.424;11.258;2023-07-28T04:05:52;95021.97;;;18.36;77.55
25526;BME280;13424;48.424;11.258;2023-07-28T04:08:18;95028.09;;;18.41;77.13
25526;BME280;13424;48.424;11.258;2023-07-28T04:10:44;95025.66;;;18.40;77.11
25526;BME280;13424;48.424;11.258;2023-07-28T04:13:10;95029.69;;;18.29;77.79
25526;BME280;13424;48.424;11.258;2023-07-28T04:15:36;95038.09;;;18.41;77.53
25526;BME280;13424;48.424;11.258;2023-07-28T04:18:02;95027.06;;;18.51;77.11
25526;BME280;13424;48.424;11.258;2023-07-28T04:20:29;95031.66;;;18.51;77.62
25526;BME280;13424;48.424;11.258;2023-07-28T04:22:55;95034.34;;;18.64;76.80
25526;BME280;13424;48.424;11.258;2023-07-28T04:25:21;95038.06;;;18.68;76.94
25526;BME280;13424;48.424;11.258;2023-07-28T04:27:48;95037.59;;;18.89;75.90
25526;BME280;13424;48.424;11.258;2023-07-28T04:30:16;95026.94;;;19.06;75.43
25526;BME280;13424;48.424;11.258;2023-07-28T04:32:42;95028.41;;;19.12;75.07
25526;BME280;13424;48.424;11.258;2023-07-28T04:35:16;95047.13;;;19.09;75.28
25526;BME280;13424;48.424;11.258;2023-07-28T04:37:57;95043.94;;;19.29;74.76
25526;BME280;13424;48.424;11.258;2023-07-28T04:40:40;95048.72;;;19.32;75.26
25526;BME280;13424;48.424;11.258;2023-07-28T04:43:06;95055.47;;;19.66;74.18
25526;BME280;13424;48.424;11.258;2023-07-28T04:45:32;95047.13;;;19.53;74.44
25526;BME280;13424;48.424;11.258;2023-07-28T04:48:08;95043.44;;;19.72;74.01
25526;BME280;13424;48.424;11.258;2023-07-28T04:50:34;95048.09;;;19.35;75.71
25526;BME280;13424;48.424;11.258;2023-07-28T04:53:32;95050.84;;;19.89;74.91
25526;BME280;13424;48.424;11.258;2023-07-28T04:56:24;95048.44;;;19.87;75.00
25526;BME280;13424;48.424;11.258;2023-07-28T04:58:50;95059.22;;;20.10;74.44
25526;BME280;13424;48.424;11.258;2023-07-28T05:01:16;95063.97;;;20.04;74.00
25526;BME280;13424;48.424;11.258;2023-07-28T05:03:45;95050.13;;;20.14;74.81
25526;BME280;13424;48.424;11.258;2023-07-28T05:06:24;95059.47;;;20.30;73.95
25526;BME280;13424;48.424;11.258;2023-07-28T05:08:52;95060.50;;;20.12;74.28
25526;BME280;13424;48.424;11.258;2023-07-28T05:11:24;95060.13;;;20.05;75.82
25526;BME280;13424;48.424;11.258;2023-07-28T05:13:50;95069.66;;;19.94;75.64
25526;BME280;13424;48.424;11.258;2023-07-28T05:16:16;95071.34;;;20.21;75.52
25526;BME280;13424;48.424;11.258;2023-07-28T05:19:01;95069.50;;;21.13;73.18
25526;BME280;13424;48.424;11.258;2023-07-28T05:21:46;95063.75;;;21.58;71.01
25526;BME280;13424;48.424;11.258;2023-07-28T05:24:13;95053.09;;;21.44;71.72
25526;BME280;13424;48.424;11.258;2023-07-28T05:26:40;95068.72;;;21.12;72.56
25526;BME280;13424;48.424;11.258;2023-07-28T05:29:06;95066.91;;;20.65;74.10
25526;BME280;13424;48.424;11.258;2023-07-28T05:31:32;95063.34;;;20.47;75.21
25526;BME280;13424;48.424;11.258;2023-07-28T05:33:59;95063.56;;;20.76;75.04
25526;BME280;13424;48.424;11.258;2023-07-28T05:36:24;95063.44;;;21.16;74.16
25526;BME280;13424;48.424;11.258;2023-07-28T05:38:54;95058.81;;;21.51;73.36
25526;BME280;13424;48.424;11.258;2023-07-28T05:41:27;95062.41;;;22.66;69.94
25526;BME280;13424;48.424;11.258;2023-07-28T05:43:53;95061.72;;;23.61;66.42
25526;BME280;13424;48.424;11.258;2023-07-28T05:46:19;95067.56;;;23.72;65.75
25526;BME280;13424;48.424;11.258;2023-07-28T05:48:45;95069.25;;;23.77;66.63
25526;BME280;13424;48.424;11.258;2023-07-28T05:51:11;95070.44;;;22.92;69.00
25526;BME280;13424;48.424;11.258;2023-07-28T05:53:37;95068.25;;;23.06;69.28
25526;BME280;13424;48.424;11.258;2023-07-28T05:56:06;95071.72;;;23.16;69.03
25526;BME280;13424;48.424;11.258;2023-07-28T05:58:33;95075.63;;;23.27;69.03
25526;BME280;13424;48.424;11.258;2023-07-28T06:00:59;95067.94;;;23.08;69.84
25526;BME280;13424;48.424;11.258;2023-07-28T06:03:45;95071.75;;;22.86;70.70
25526;BME280;13424;48.424;11.258;2023-07-28T06:06:17;95085.38;;;23.28;70.66
25526;BME280;13424;48.424;11.258;2023-07-28T06:08:43;95091.72;;;22.90;71.21
25526;BME280;13424;48.424;11.258;2023-07-28T06:11:10;95087.03;;;22.70;71.74
25526;BME280;13424;48.424;11.258;2023-07-28T06:13:36;95091.88;;;22.94;71.68
25526;BME280;13424;48.424;11.258;2023-07-28T06:16:02;95094.53;;;23.02;71.71
25526;BME280;13424;48.424;11.258;2023-07-28T06:18:28;95093.63;;;22.60;72.36
25526;BME280;13424;48.424;11.258;2023-07-28T06:21:27;95095.56;;;22.89;72.68
25526;BME280;13424;48.424;11.258;2023-07-28T06:23:52;95093.94;;;23.18;71.45
25526;BME280;13424;48.424;11.258;2023-07-28T06:26:19;95083.78;;;23.48;70.19
25526;BME280;13424;48.424;11.258;2023-07-28T06:28:45;95097.69;;;23.04;71.41
25526;BME280;13424;48.424;11.258;2023-07-28T06:31:49;95094.41;;;23.40;70.31
25526;BME280;13424;48.424;11.258;2023-07-28T06:34:15;95096.25;;;23.28;70.49
25526;BME280;13424;48.424;11.258;2023-07-28T06:36:41;95102.16;;;23.30;70.88
25526;BME280;13424;48.424;11.258;2023-07-28T06:39:07;95097.72;;;23.46;69.34
25526;BME280;13424;48.424;11.258;2023-07-28T06:41:34;95096.00;;;23.62;68.79
25526;BME280;13424;48.424;11.258;2023-07-28T06:44:00;95090.66;;;23.45;69.68
25526;BME280;13424;48.424;11.258;2023-07-28T06:46:29;95095.75;;;24.01;67.65
25526;BME280;13424;48.424;11.258;2023-07-28T06:48:57;95096.31;;;24.39;68.22
25526;BME280;13424;48.424;11.258;2023-07-28T06:51:24;95099.03;;;24.39;67.32
25526;BME280;13424;48.424;11.258;2023-07-28T06:53:50;95100.06;;;24.96;66.31
25526;BME280;13424;48.424;11.258;2023-07-28T06:56:16;95096.56;;;24.46;67.32
25526;BME280;13424;48.424;11.258;2023-07-28T06:58:43;95093.72;;;24.67;67.12
25526;BME280;13424;48.424;11.258;2023-07-28T07:01:09;95113.59;;;25.17;66.46
25526;BME280;13424;48.424;11.258;2023-07-28T07:03:37;95111.09;;;24.50;67.68
25526;BME280;13424;48.424;11.258;2023-07-28T07:06:03;95114.25;;;25.66;65.42
25526;BME280;13424;48.424;11.258;2023-07-28T07:08:29;95112.66;;;25.65;66.15
25526;BME280;13424;48.424;11.258;2023-07-28T07:10:55;95114.31;;;25.42;66.12
25526;BME280;13424;48.424;11.258;2023-07-28T07:13:21;95113.28;;;25.86;64.32
25526;BME280;13424;48.424;11.258;2023-07-28T07:15:47;95112.41;;;25.70;64.22
25526;BME280;13424;48.424;11.258;2023-07-28T07:18:16;95107.06;;;25.33;63.99
25526;BME280;13424;48.424;11.258;2023-07-28T07:20:42;95116.38;;;25.45;64.03
25526;BME280;13424;48.424;11.258;2023-07-28T07:23:14;95117.69;;;25.51;64.28
25526;BME280;13424;48.424;11.258;2023-07-28T07:25:40;95120.63;;;24.93;64.67
25526;BME280;13424;48.424;11.258;2023-07-28T07:28:12;95117.91;;;24.93;64.86
25526;BME280;13424;48.424;11.258;2023-07-28T07:30:37;95120.19;;;25.28;64.42
25526;BME280;13424;48.424;11.258;2023-07-28T07:33:03;95117.91;;;24.44;66.25
25526;BME280;13424;48.424;11.258;2023-07-28T07:35:29;95123.00;;;24.95;65.37
25526;BME280;13424;48.424;11.258;2023-07-28T07:37:55;95125.66;;;25.03;66.04
25526;BME280;13424;48.424;11.258;2023-07-28T07:40:21;95128.09;;;25.33;66.38
25526;BME280;13424;48.424;11.258;2023-07-28T07:42:49;95131.56;;;25.58;64.48
25526;BME280;13424;48.424;11.258;2023-07-28T07:45:15;95131.50;;;25.42;64.59
25526;BME280;13424;48.424;11.258;2023-07-28T07:47:42;95128.09;;;25.33;64.53
25526;BME280;13424;48.424;11.258;2023-07-28T07:50:10;95137.03;;;25.58;64.61
25526;BME280;13424;48.424;11.258;2023-07-28T07:52:37;95146.19;;;25.38;65.92
25526;BME280;13424;48.424;11.258;2023-07-28T07:55:04;95150.44;;;25.75;64.58
25526;BME280;13424;48.424;11.258;2023-07-28T07:57:30;95151.13;;;25.72;64.46
25526;BME280;13424;48.424;11.258;2023-07-28T07:59:58;95154.63;;;25.73;63.94
25526;BME280;13424;48.424;11.258;2023-07-28T08:02:24;95162.69;;;25.29;64.65
25526;BME280;13424;48.424;11.258;2023-07-28T08:04:52;95159.84;;;25.25;64.34
25526;BME280;13424;48.424;11.258;2023-07-28T08:07:20;95156.66;;;24.99;64.60
25526;BME280;13424;48.424;11.258;2023-07-28T08:09:46;95161.69;;;25.21;65.34
25526;BME280;13424;48.424;11.258;2023-07-28T08:12:13;95153.41;;;25.05;64.93
25526;BME280;13424;48.424;11.258;2023-07-28T08:14:40;95149.81;;;25.42;64.70
25526;BME280;13424;48.424;11.258;2023-07-28T08:17:06;95152.88;;;25.52;64.26
25526;BME280;13424;48.424;11.258;2023-07-28T08:23:19;95155.88;;;26.31;63.58
25526;BME280;13424;48.424;11.258;2023-07-28T08:26:51;95146.88;;;25.75;63.30
25526;BME280;13424;48.424;11.258;2023-07-28T08:29:17;95143.22;;;26.55;62.36
25526;BME280;13424;48.424;11.258;2023-07-28T08:31:43;95139.84;;;26.77;63.90
25526;BME280;13424;48.424;11.258;2023-07-28T08:34:08;95139.19;;;26.36;62.53
25526;BME280;13424;48.424;11.258;2023-07-28T08:36:34;95146.47;;;26.76;61.08
25526;BME280;13424;48.424;11.258;2023-07-28T08:39:02;95142.25;;;26.47;63.11
25526;BME280;13424;48.424;11.258;2023-07-28T08:41:28;95145.25;;;26.89;61.74
25526;BME280;13424;48.424;11.258;2023-07-28T08:43:54;95158.38;;;26.99;61.02
25526;BME280;13424;48.424;11.258;2023-07-28T08:46:20;95158.13;;;26.89;60.69
25526;BME280;13424;48.424;11.258;2023-07-28T08:48:46;95163.34;;;26.78;61.65
25526;BME280;13424;48.424;11.258;2023-07-28T08:51:13;95164.28;;;27.02;61.98
25526;BME280;13424;48.424;11.258;2023-07-28T08:53:40;95161.41;;;26.19;62.72
25526;BME280;13424;48.424;11.258;2023-07-28T08:56:06;95165.28;;;26.18;63.25
25526;BME280;13424;48.424;11.258;2023-07-28T08:58:33;95159.63;;;26.55;63.96
25526;BME280;13424;48.424;11.258;2023-07-28T09:00:59;95163.66;;;27.59;61.58
25526;BME280;13424;48.424;11.258;2023-07-28T09:03:29;95160.81;;;27.36;62.59
25526;BME280;13424;48.424;11.258;2023-07-28T09:06:03;95165.81;;;26.83;61.60
25526;BME280;13424;48.424;11.258;2023-07-28T09:08:32;95160.94;;;27.08;62.20
25526;BME280;13424;48.424;11.258;2023-07-28T09:11:05;95158.81;;;27.52;60.71
25526;BME280;13424;48.424;11.258;2023-07-28T09:13:41;95152.91;;;26.99;60.21
25526;BME280;13424;48.424;11.258;2023-07-28T09:16:20;95151.13;;;27.23;60.34
25526;BME280;13424;48.424;11.258;2023-07-28T09:18:46;95151.94;;;27.59;60.25
25526;BME280;13424;48.424;11.258;2023-07-28T09:21:22;95152.09;;;26.99;61.85
25526;BME280;13424;48.424;11.258;2023-07-28T09:23:49;95148.88;;;26.18;61.10
25526;BME280;13424;48.424;11.258;2023-07-28T09:26:16;95148.69;;;26.55;61.32
25526;BME280;13424;48.424;11.258;2023-07-28T09:28:43;95151.25;;;26.48;60.70
25526;BME280;13424;48.424;11.258;2023-07-28T09:31:09;95160.06;;;26.13;59.52
25526;BME280;13424;48.424;11.258;2023-07-28T09:38:02;95154.75;;;26.04;59.44
25526;BME280;13424;48.424;11.258;2023-07-28T09:40:29;95151.59;;;26.18;59.55
25526;BME280;13424;48.424;11.258;2023-07-28T09:42:55;95158.53;;;26.00;60.29
25526;BME280;13424;48.424;11.258;2023-07-28T09:45:22;95154.38;;;25.38;61.65
25526;BME280;13424;48.424;11.258;2023-07-28T09:47:54;95159.75;;;25.74;61.18
25526;BME280;13424;48.424;11.258;2023-07-28T09:50:23;95152.84;;;26.49;60.71
25526;BME280;13424;48.424;11.258;2023-07-28T09:52:54;95136.00;;;26.47;60.13
25526;BME280;13424;48.424;11.258;2023-07-28T09:55:23;95148.06;;;26.61;60.92
25526;BME280;13424;48.424;11.258;2023-07-28T09:57:57;95156.28;;;26.17;61.02
25526;BME280;13424;48.424;11.258;2023-07-28T10:00:24;95151.50;;;26.42;62.23
25526;BME280;13424;48.424;11.258;2023-07-28T10:02:51;95144.81;;;26.12;61.82
25526;BME280;13424;48.424;11.258;2023-07-28T10:05:18;95149.38;;;26.83;61.01
25526;BME280;13424;48.424;11.258;2023-07-28T10:07:48;95149.84;;;26.10;62.70
25526;BME280;13424;48.424;11.258;2023-07-28T10:10:15;95143.88;;;25.92;62.72
25526;BME280;13424;48.424;11.258;2023-07-28T10:12:50;95144.59;;;26.05;63.38
25526;BME280;13424;48.424;11.258;2023-07-28T10:15:21;95141.81;;;25.49;63.37
25526;BME280;13424;48.424;11.258;2023-07-28T10:17:55;95147.25;;;25.61;63.88
25526;BME280;13424;48.424;11.258;2023-07-28T10:20:42;95153.72;;;25.16;63.22
25526;BME280;13424;48.424;11.258;2023-07-28T10:23:20;95164.28;;;24.93;63.34
25526;BME280;13424;48.424;11.258;2023-07-28T10:25:59;95159.75;;;24.97;62.78
25526;BME280;13424;48.424;11.258;2023-07-28T10:28:36;95152.09;;;25.27;62.36
25526;BME280;13424;48.424;11.258;2023-07-28T10:31:11;95160.19;;;25.36;63.08
25526;BME280;13424;48.424;11.258;2023-07-28T10:33:41;95159.81;;;24.52;63.95
25526;BME280;13424;48.424;11.258;2023-07-28T10:41:35;95169.03;;;24.60;64.29
25526;BME280;13424;48.424;11.258;2023-07-28T10:44:02;95170.84;;;24.68;64.42
25526;BME280;13424;48.424;11.258;2023-07-28T10:46:41;95175.28;;;24.72;65.28
25526;BME280;13424;48.424;11.258;2023-07-28T10:49:07;95174.41;;;25.17;63.92
25526;BME280;13424;48.424;11.258;2023-07-28T10:51:36;95177.34;;;25.24;63.24
25526;BME280;13424;48.424;11.258;2023-07-28T10:54:02;95183.16;;;25.23;62.68
25526;BME280;13424;48.424;11.258;2023-07-28T10:57:02;95182.38;;;25.10;64.00
25526;BME280;13424;48.424;11.258;2023-07-28T10:59:30;95190.41;;;24.94;64.66
25526;BME280;13424;48.424;11.258;2023-07-28T11:01:56;95197.09;;;24.72;65.24
25526;BME280;13424;48.424;11.258;2023-07-28T11:04:23;95201.34;;;24.37;66.02
25526;BME280;13424;48.424;11.258;2023-07-28T11:06:50;95210.56;;;24.44;67.81
25526;BME280;13424;48.424;11.258;2023-07-28T11:09:21;95193.53;;;24.47;68.45
25526;BME280;13424;48.424;11.258;2023-07-28T11:11:51;95201.94;;;24.21;68.75
25526;BME280;13424;48.424;11.258;2023-07-28T11:14:18;95194.34;;;24.60;68.26
25526;BME280;13424;48.424;11.258;2023-07-28T11:16:45;95195.97;;;24.86;68.31
25526;BME280;13424;48.424;11.258;2023-07-28T11:19:13;95198.63;;;24.37;69.23
25526;BME280;13424;48.424;11.258;2023-07-28T11:21:41;95196.94;;;24.23;69.31
25526;BME280;13424;48.424;11.258;2023-07-28T11:24:09;95197.03;;;24.48;68.38
25526;BME280;13424;48.424;11.258;2023-07-28T11:27:06;95200.00;;;24.55;67.96
25526;BME280;13424;48.424;11.258;2023-07-28T11:29:34;95198.84;;;24.89;67.87
25526;BME280;13424;48.424;11.258;2023-07-28T11:32:00;95205.16;;;24.69;68.85
25526;BME280;13424;48.424;11.258;2023-07-28T11:34:26;95208.38;;;25.44;67.54
25526;BME280;13424;48.424;11.258;2023-07-28T11:36:52;95205.41;;;25.61;66.51
25526;BME280;13424;48.424;11.258;2023-07-28T11:39:19;95202.31;;;25.51;64.63
25526;BME280;13424;48.424;11.258;2023-07-28T11:41:47;95207.44;;;26.61;64.03
25526;BME280;13424;48.424;11.258;2023-07-28T11:44:14;95212.22;;;27.27;64.51
25526;BME280;13424;48.424;11.258;2023-07-28T11:46:42;95206.94;;;27.34;62.37
25526;BME280;13424;48.424;11.258;2023-07-28T11:49:18;95202.25;;;27.03;62.17
25526;BME280;13424;48.424;11.258;2023-07-28T11:51:53;95208.91;;;26.30;62.53
25526;BME280;13424;48.424;11.258;2023-07-28T11:54:23;95205.50;;;26.77;62.32
25526;BME280;13424;48.424;11.258;2023-07-28T11:56:54;95200.97;;;27.48;61.96
25526;BME280;13424;48.424;11.258;2023-07-28T11:59:20;95212.53;;;27.73;62.53
25526;BME280;13424;48.424;11.258;2023-07-28T12:02:04;95205.75;;;27.86;61.76
25526;BME280;13424;48.424;11.258;2023-07-28T12:04:40;95216.69;;;27.86;60.53
25526;BME280;13424;48.424;11.258;2023-07-28T12:07:18;95202.75;;;28.72;59.66
25526;BME280;13424;48.424;11.258;2023-07-28T12:12:30;95202.44;;;28.54;62.79
25526;BME280;13424;48.424;11.258;2023-07-28T12:14:58;95205.66;;;28.83;59.47
25526;BME280;13424;48.424;11.258;2023-07-28T12:17:31;95195.81;;;28.17;61.18
25526;BME280;13424;48.424;11.258;2023-07-28T12:20:05;95200.00;;;28.30;60.62
25526;BME280;13424;48.424;11.258;2023-07-28T12:22:41;95202.63;;;27.68;61.80
25526;BME280;13424;48.424;11.258;2023-07-28T12:25:14;95197.22;;;27.72;60.58
25526;BME280;13424;48.424;11.258;2023-07-28T12:27:40;95196.22;;;27.80;60.98
25526;BME280;13424;48.424;11.258;2023-07-28T12:30:08;95208.19;;;28.10;59.14
25526;BME280;13424;48.424;11.258;2023-07-28T12:32:34;95194.06;;;27.70;60.85
25526;BME280;13424;48.424;11.258;2023-07-28T12:35:00;95189.31;;;27.86;60.43
25526;BME280;13424;48.424;11.258;2023-07-28T12:37:26;95191.47;;;27.96;60.20
25526;BME280;13424;48.424;11.258;2023-07-28T12:39:52;95196.50;;;28.75;58.20
25526;BME280;13424;48.424;11.258;2023-07-28T12:42:18;95192.25;;;28.78;58.04
25526;BME280;13424;48.424;11.258;2023-07-28T12:44:46;95192.91;;;29.40;57.54
25526;BME280;13424;48.424;11.258;2023-07-28T12:47:12;95192.47;;;27.69;58.65
25526;BME280;13424;48.424;11.258;2023-07-28T12:50:29;95196.34;;;29.10;56.90
25526;BME280;13424;48.424;11.258;2023-07-28T12:52:55;95188.75;;;29.00;57.86
25526;BME280;13424;48.424;11.258;2023-07-28T12:55:21;95196.38;;;29.37;56.56
25526;BME280;13424;48.424;11.258;2023-07-28T12:57:47;95192.38;;;28.62;57.06
25526;BME280;13424;48.424;11.258;2023-07-28T13:00:15;95191.22;;;29.32;57.69
25526;BME280;13424;48.424;11.258;2023-07-28T13:02:44;95187.47;;;28.94;55.15
25526;BME280;13424;48.424;11.258;2023-07-28T13:05:12;95193.63;;;29.10;55.40
25526;BME280;13424;48.424;11.258;2023-07-28T13:07:39;95183.00;;;28.86;57.07
25526;BME280;13424;48.424;11.258;2023-07-28T13:10:10;95195.78;;;28.55;57.89
25526;BME280;13424;48.424;11.258;2023-07-28T13:12:45;95194.13;;;28.74;55.94
25526;BME280;13424;48.424;11.258;2023-07-28T13:15:11;95200.69;;;28.27;57.27
25526;BME280;13424;48.424;11.258;2023-07-28T13:17:37;95206.78;;;28.36;57.35
25526;BME280;13424;48.424;11.258;2023-07-28T13:20:04;95205.44;;;28.49;58.49
25526;BME280;13424;48.424;11.258;2023-07-28T13:22:31;95207.72;;;28.05;57.16